Time;durP1;ratioP1;P1;durP2;ratioP2;P2;SDS_P1;SDS_P2;PMS_P1;PMS_P2;Temp;Humidity;BMP_temperature;BMP_pressure;BME280_temperature;BME280_humidity;BME280_pressure;Samples;Min_cycle;Max_cycle;Signal;HPM_P1;HPM_P2
2023/12/26 00:02:24;;;;;;;5.70;0.80;;;;;;;9.79;100.00;99957.56;5046445;28;20401;-68
2023/12/26 00:04:49;;;;;;;4.53;0.73;;;;;;;9.80;100.00;99947.94;5046279;28;20116;-65
2023/12/26 00:07:14;;;;;;;2.90;0.50;;;;;;;9.79;100.00;99952.31;5046443;28;20295;-65
2023/12/26 00:09:41;;;;;;;4.00;0.50;;;;;;;9.80;100.00;99940.91;5046010;28;20097;-70
2023/12/26 00:12:07;;;;;;;7.35;0.60;;;;;;;9.81;100.00;99944.44;5046274;28;20642;-66
2023/12/26 00:14:32;;;;;;;3.03;0.60;;;;;;;9.81;100.00;99933.91;5038044;28;20068;-66
2023/12/26 00:16:57;;;;;;;3.67;0.50;;;;;;;9.82;100.00;99933.94;5033169;28;20060;-65
2023/12/26 00:19:23;;;;;;;3.33;0.50;;;;;;;9.83;100.00;99927.81;5032426;28;20044;-67
2023/12/26 00:21:48;;;;;;;3.08;0.45;;;;;;;9.83;100.00;99921.63;5032778;28;20405;-65
2023/12/26 00:24:13;;;;;;;4.77;0.60;;;;;;;9.84;100.00;99919.06;5032303;28;20037;-65
2023/12/26 00:26:39;;;;;;;6.03;0.70;;;;;;;9.84;100.00;99918.16;5032595;28;20033;-68
2023/12/26 00:29:05;;;;;;;6.05;0.60;;;;;;;9.85;100.00;99918.22;5032597;28;20049;-69
2023/12/26 00:31:30;;;;;;;2.97;0.63;;;;;;;9.85;100.00;99905.03;5031267;28;20049;-69
2023/12/26 00:33:57;;;;;;;4.40;0.80;;;;;;;9.85;100.00;99899.75;5032607;28;20443;-66
2023/12/26 00:36:22;;;;;;;4.03;0.60;;;;;;;9.85;100.00;99894.50;5032279;28;20702;-66
2023/12/26 00:38:48;;;;;;;3.40;0.50;;;;;;;9.85;100.00;99889.22;5031086;28;20244;-66
2023/12/26 00:41:13;;;;;;;4.30;0.60;;;;;;;9.85;100.00;99890.94;5031291;28;20033;-67
2023/12/26 00:43:39;;;;;;;5.33;0.60;;;;;;;9.85;100.00;99885.66;5024048;28;20041;-68
2023/12/26 00:46:05;;;;;;;2.53;0.47;;;;;;;9.86;100.00;99885.72;5032012;28;20037;-65
2023/12/26 00:48:30;;;;;;;2.90;0.50;;;;;;;9.84;100.00;99870.69;5032026;28;20304;-66
2023/12/26 00:50:55;;;;;;;3.07;0.63;;;;;;;9.85;100.00;99877.75;5038438;28;20108;-66
2023/12/26 00:53:22;;;;;;;2.63;0.57;;;;;;;9.85;100.00;99877.75;5030679;28;20121;-68
2023/12/26 00:55:47;;;;;;;3.10;0.70;;;;;;;9.84;100.00;99874.22;5030620;28;20287;-66
2023/12/26 00:58:12;;;;;;;3.90;0.63;;;;;;;9.84;100.00;99870.69;5031880;28;20037;-66
2023/12/26 01:00:38;;;;;;;2.93;0.50;;;;;;;9.87;100.00;99870.78;5031857;28;20116;-67
2023/12/26 01:03:04;;;;;;;4.55;0.82;;;;;;;9.88;100.00;99868.19;5031806;28;20452;-66
2023/12/26 01:07:52;;;;;;;3.03;0.70;;;;;;;9.89;100.00;99854.16;5107812;27;20731;-70
2023/12/26 01:10:18;;;;;;;3.67;0.70;;;;;;;9.91;100.00;99859.50;5094263;28;20043;-67
2023/12/26 01:12:43;;;;;;;5.25;0.90;;;;;;;9.93;100.00;99844.59;5087455;28;20036;-68
2023/12/26 01:15:09;;;;;;;4.37;0.60;;;;;;;9.93;100.00;99845.47;5087213;28;20056;-67
2023/12/26 01:19:54;;;;;;;4.55;0.60;;;;;;;9.93;100.00;99829.66;5102910;27;20723;-68
2023/12/26 01:22:19;;;;;;;3.00;0.70;;;;;;;9.93;100.00;99834.03;5072286;28;20035;-70
2023/12/26 01:24:45;;;;;;;5.25;0.82;;;;;;;9.95;100.00;99827.97;5087012;28;20047;-68
2023/12/26 01:27:12;;;;;;;4.93;0.57;;;;;;;9.96;100.00;99827.09;5093913;28;20071;-67
2023/12/26 01:29:37;;;;;;;3.50;0.70;;;;;;;9.98;100.00;99816.59;5087362;28;20135;-64
2023/12/26 01:32:03;;;;;;;3.10;0.60;;;;;;;10.00;100.00;99811.38;5087466;28;20180;-67
2023/12/26 01:34:28;;;;;;;3.40;0.80;;;;;;;10.01;100.00;99806.16;5086947;28;20032;-64
2023/12/26 01:36:53;;;;;;;4.43;0.80;;;;;;;10.04;100.00;99805.34;5086951;28;20131;-67
2023/12/26 01:39:19;;;;;;;2.73;0.60;;;;;;;10.06;100.00;99803.63;5086753;28;20481;-65
2023/12/26 01:41:45;;;;;;;3.60;0.67;;;;;;;10.08;100.00;99800.19;5086939;28;20036;-65
2023/12/26 01:44:10;;;;;;;3.78;1.15;;;;;;;10.09;100.00;99788.78;5086900;28;20491;-70
2023/12/26 01:46:35;;;;;;;3.67;0.67;;;;;;;10.12;100.00;99787.97;5085559;28;20067;-67
2023/12/26 01:49:02;;;;;;;3.03;0.60;;;;;;;10.13;100.00;99780.09;5085562;28;20056;-65
2023/12/26 01:51:29;;;;;;;2.97;0.60;;;;;;;10.17;100.00;99770.53;5095037;28;20123;-68
2023/12/26 01:53:55;;;;;;;4.85;0.60;;;;;;;10.18;100.00;99778.50;5085656;28;20031;-65
2023/12/26 01:56:21;;;;;;;3.72;0.70;;;;;;;10.21;100.00;99769.78;5093787;28;20032;-64
2023/12/26 01:58:48;;;;;;;3.33;0.68;;;;;;;10.24;100.00;99764.59;5085324;28;20032;-65
2023/12/26 02:03:26;;;;;;;3.45;0.50;;;;;;;10.24;100.00;99751.41;5106137;27;20387;-65
2023/12/26 02:05:52;;;;;;;3.10;0.80;;;;;;;10.26;100.00;99750.56;5086680;28;20032;-64
2023/12/26 02:08:17;;;;;;;3.97;0.70;;;;;;;10.28;100.00;99748.88;5107563;28;20565;-65
2023/12/26 02:10:43;;;;;;;2.97;0.50;;;;;;;10.28;100.00;99743.59;5107436;28;20036;-65
2023/12/26 02:13:08;;;;;;;3.47;0.63;;;;;;;10.31;100.00;99734.88;5107675;28;20487;-65
2023/12/26 02:15:33;;;;;;;2.47;0.40;;;;;;;10.31;100.00;99737.53;5106143;28;20510;-65
2023/12/26 02:17:59;;;;;;;2.45;0.50;;;;;;;10.34;100.00;99748.16;5121027;28;20153;-66
2023/12/26 02:20:24;;;;;;;3.57;0.60;;;;;;;10.33;100.00;99730.50;5112404;27;20058;-65
2023/12/26 02:22:50;;;;;;;2.17;0.43;;;;;;;10.34;100.00;99743.75;5107713;28;20028;-65
2023/12/26 02:27:44;;;;;;;3.97;0.75;;;;;;;10.34;100.00;99735.84;5087803;27;20360;-65
2023/12/26 02:30:11;;;;;;;3.38;0.70;;;;;;;10.34;100.00;99733.19;5075773;28;20025;-66
2023/12/26 02:32:38;;;;;;;7.47;0.60;;;;;;;10.36;100.00;99731.47;5076162;28;20052;-67
2023/12/26 02:35:06;;;;;;;2.80;0.70;;;;;;;10.36;100.00;99710.38;5051989;28;20115;-66
2023/12/26 02:37:32;;;;;;;5.25;0.80;;;;;;;10.37;100.00;99725.34;5058435;28;20543;-65
2023/12/26 02:39:57;;;;;;;3.10;0.70;;;;;;;10.36;100.00;99710.38;5071856;28;20035;-65
2023/12/26 02:42:24;;;;;;;3.10;0.50;;;;;;;10.37;100.00;99705.97;5069336;28;20025;-67
2023/12/26 02:44:50;;;;;;;3.47;0.60;;;;;;;10.37;100.00;99712.16;5048689;28;20024;-66
2023/12/26 02:47:16;;;;;;;3.40;0.80;;;;;;;10.39;100.00;99699.00;5048599;28;20075;-65
2023/12/26 02:49:41;;;;;;;2.97;0.60;;;;;;;10.36;100.00;99699.81;5074424;28;20039;-66
2023/12/26 02:52:06;;;;;;;2.95;0.50;;;;;;;10.38;100.00;99697.22;5071256;28;20043;-69
2023/12/26 02:56:46;;;;;;;2.47;0.40;;;;;;;10.42;100.00;99706.09;5066887;28;20927;-66
2023/12/26 02:59:11;;;;;;;2.15;0.40;;;;;;;10.36;100.00;99698.94;5054897;28;20034;-66
2023/12/26 03:01:36;;;;;;;3.17;0.57;;;;;;;10.34;100.00;99664.59;5033665;28;20042;-65
2023/12/26 03:04:02;;;;;;;3.80;0.50;;;;;;;10.34;100.00;99661.94;5033666;28;20113;-66
2023/12/26 03:06:27;;;;;;;2.67;0.40;;;;;;;10.38;100.00;99660.25;5029578;28;20087;-66
2023/12/26 03:08:52;;;;;;;2.27;0.30;;;;;;;10.38;100.00;99668.19;5039867;28;20116;-66
2023/12/26 03:13:38;;;;;;;3.15;0.30;;;;;;;10.37;100.00;99685.75;5101334;27;20775;-64
2023/12/26 03:16:03;;;;;;;5.07;0.50;;;;;;;10.37;100.00;99680.47;5085891;28;20040;-66
2023/12/26 03:18:29;;;;;;;2.30;0.40;;;;;;;10.41;100.00;99670.03;5094601;28;20036;-64
2023/12/26 03:23:06;;;;;;;1.67;0.30;;;;;;;10.47;100.00;99642.00;5106385;27;20367;-69
2023/12/26 03:25:32;;;;;;;2.50;0.40;;;;;;;10.55;100.00;99680.06;5107000;28;20123;-64
2023/12/26 03:27:57;;;;;;;1.95;0.30;;;;;;;10.56;100.00;99676.53;5107495;28;20480;-68
2023/12/26 03:30:22;;;;;;;2.40;0.37;;;;;;;10.59;100.00;99666.06;5106478;28;20122;-64
2023/12/26 03:32:48;;;;;;;2.47;0.40;;;;;;;10.60;100.00;99657.31;5094808;28;20610;-64
2023/12/26 03:35:13;;;;;;;1.47;0.30;;;;;;;10.64;100.00;99664.44;5095760;27;20036;-67
2023/12/26 03:37:38;;;;;;;2.00;0.40;;;;;;;10.66;100.00;99633.66;5089942;28;20543;-65
2023/12/26 03:40:05;;;;;;;1.80;0.30;;;;;;;10.69;100.00;99646.03;5108966;28;20044;-65
2023/12/26 03:42:31;;;;;;;2.55;0.40;;;;;;;10.77;100.00;99682.31;5098288;27;20028;-66
2023/12/26 03:44:57;;;;;;;1.60;0.30;;;;;;;10.83;100.00;99681.59;5100188;28;20032;-65
2023/12/26 03:47:22;;;;;;;2.73;0.40;;;;;;;10.83;100.00;99703.59;5095130;28;20031;-67
2023/12/26 03:49:47;;;;;;;1.83;0.30;;;;;;;10.83;100.00;99666.63;5094395;28;20721;-67
2023/12/26 03:52:13;;;;;;;1.17;0.23;;;;;;;10.82;100.00;99690.34;5102664;27;20153;-66
2023/12/26 03:54:40;;;;;;;2.17;0.40;;;;;;;10.79;100.00;99704.41;5085559;28;20040;-67
2023/12/26 03:57:07;;;;;;;1.20;0.20;;;;;;;10.78;100.00;99699.97;5085296;28;20424;-68
2023/12/26 03:59:32;;;;;;;0.85;0.15;;;;;;;10.77;100.00;99689.34;5076427;28;20036;-71
2023/12/26 04:01:58;;;;;;;1.13;0.20;;;;;;;10.73;100.00;99698.97;5085040;28;20035;-67
2023/12/26 04:04:23;;;;;;;2.67;0.40;;;;;;;10.67;100.00;99698.81;5085916;28;20087;-67
2023/12/26 04:06:49;;;;;;;2.37;0.40;;;;;;;10.61;100.00;99695.13;5084935;28;20696;-66
2023/12/26 04:09:18;;;;;;;1.63;0.33;;;;;;;10.57;100.00;99698.56;5084686;28;20036;-66
2023/12/26 04:11:44;;;;;;;3.35;0.40;;;;;;;10.53;100.00;99697.59;5101929;27;20039;-66
2023/12/26 04:14:09;;;;;;;2.20;0.33;;;;;;;10.48;100.00;99699.22;5084766;28;20126;-66
2023/12/26 04:16:37;;;;;;;1.40;0.27;;;;;;;10.46;100.00;99700.06;5084814;28;20339;-67
2023/12/26 04:19:03;;;;;;;1.58;0.30;;;;;;;10.43;100.00;99698.22;5079049;28;20024;-66
2023/12/26 04:21:28;;;;;;;2.83;0.30;;;;;;;10.41;100.00;99705.19;5094071;28;20047;-66
2023/12/26 04:23:53;;;;;;;5.43;0.47;;;;;;;10.41;100.00;99699.91;5085010;28;20591;-66
2023/12/26 04:26:19;;;;;;;4.00;0.30;;;;;;;10.38;100.00;99692.84;5092473;28;20055;-66
2023/12/26 04:28:45;;;;;;;1.63;0.30;;;;;;;10.36;100.00;99693.66;5085690;28;20498;-69
2023/12/26 04:31:10;;;;;;;1.80;0.30;;;;;;;10.35;100.00;99705.06;5100421;28;20044;-67
2023/12/26 04:33:36;;;;;;;2.08;0.40;;;;;;;10.34;100.00;99706.81;5076494;28;20101;-67
2023/12/26 04:36:05;;;;;;;1.53;0.30;;;;;;;10.34;100.00;99706.81;5079172;28;20057;-66
2023/12/26 04:38:31;;;;;;;1.65;0.30;;;;;;;10.35;100.00;99715.63;5073909;28;20528;-66
2023/12/26 04:40:56;;;;;;;1.20;0.20;;;;;;;10.35;100.00;99718.25;5088726;28;20054;-66
2023/12/26 04:43:22;;;;;;;1.63;0.30;;;;;;;10.33;100.00;99710.31;5070938;28;20048;-66
2023/12/26 04:45:47;;;;;;;1.20;0.20;;;;;;;10.32;100.00;99713.78;5074988;28;20028;-67
2023/12/26 04:48:12;;;;;;;1.03;0.20;;;;;;;10.32;100.00;99726.09;5092772;28;20037;-67
2023/12/26 04:50:38;;;;;;;1.38;0.30;;;;;;;10.32;100.00;99732.25;5090110;28;20032;-69
2023/12/26 04:53:06;;;;;;;0.93;0.20;;;;;;;10.32;100.00;99740.19;5089987;28;20039;-66
2023/12/26 04:55:33;;;;;;;1.45;0.38;;;;;;;10.31;100.00;99740.16;5090545;28;20040;-67
2023/12/26 04:57:59;;;;;;;1.30;0.30;;;;;;;10.31;100.00;99740.16;5091101;28;20104;-67
2023/12/26 05:00:24;;;;;;;1.93;0.30;;;;;;;10.29;100.00;99734.84;5083860;28;20039;-67
2023/12/26 05:02:50;;;;;;;1.88;0.40;;;;;;;10.28;100.00;99726.88;5087175;28;20036;-67
2023/12/26 05:05:16;;;;;;;1.03;0.20;;;;;;;10.27;100.00;99733.00;5090415;28;20399;-67
2023/12/26 05:07:41;;;;;;;1.83;0.30;;;;;;;10.24;100.00;99728.53;5091721;28;20111;-69
2023/12/26 05:12:19;;;;;;;1.70;0.25;;;;;;;10.23;100.00;99736.41;5116310;27;20748;-68
2023/12/26 05:14:44;;;;;;;2.20;0.40;;;;;;;10.21;100.00;99738.13;5107788;28;20031;-68
2023/12/26 05:17:10;;;;;;;1.20;0.30;;;;;;;10.22;100.00;99735.50;5107542;28;20039;-65
2023/12/26 05:19:39;;;;;;;1.30;0.30;;;;;;;10.20;100.00;99742.50;5098236;28;20036;-64
2023/12/26 05:22:04;;;;;;;1.10;0.20;;;;;;;10.19;100.00;99745.09;5085683;28;20115;-65
2023/12/26 05:24:35;;;;;;;2.03;0.25;;;;;;;10.19;100.00;99742.47;5085044;28;20123;-67
2023/12/26 05:27:00;;;;;;;1.50;0.30;;;;;;;10.17;100.00;99750.31;5085666;28;20515;-65
2023/12/26 05:29:25;;;;;;;3.30;0.30;;;;;;;10.16;100.00;99747.66;5086583;28;20036;-66
2023/12/26 05:31:52;;;;;;;2.03;0.30;;;;;;;10.17;100.00;99762.63;5085676;28;20043;-66
2023/12/26 05:34:18;;;;;;;1.58;0.20;;;;;;;10.17;100.00;99770.53;5071552;28;20120;-66
2023/12/26 05:36:44;;;;;;;1.53;0.30;;;;;;;10.17;100.00;99768.78;5076990;28;20611;-66
2023/12/26 05:39:10;;;;;;;2.50;0.30;;;;;;;10.17;100.00;99754.72;5085250;28;20818;-66
2023/12/26 05:41:36;;;;;;;3.30;0.40;;;;;;;10.16;100.00;99758.22;5085486;28;20067;-68
2023/12/26 05:44:02;;;;;;;1.77;0.40;;;;;;;10.15;100.00;99753.75;5085225;28;20189;-66
2023/12/26 05:46:31;;;;;;;1.43;0.30;;;;;;;10.15;100.00;99754.66;5085194;28;20504;-67
2023/12/26 05:48:58;;;;;;;2.92;0.30;;;;;;;10.15;100.00;99751.13;5085081;28;20032;-66
2023/12/26 05:51:25;;;;;;;1.73;0.30;;;;;;;10.14;100.00;99751.97;5093043;28;20043;-68
2023/12/26 05:53:50;;;;;;;2.05;0.30;;;;;;;10.15;100.00;99766.94;5085017;28;20488;-67
2023/12/26 05:56:15;;;;;;;0.90;0.20;;;;;;;10.14;100.00;99754.59;5095629;28;20031;-67
2023/12/26 05:58:41;;;;;;;1.10;0.20;;;;;;;10.15;100.00;99759.03;5088517;28;20050;-66
2023/12/26 06:01:10;;;;;;;0.93;0.20;;;;;;;10.14;100.00;99755.50;5085010;28;20032;-65
2023/12/26 06:03:37;;;;;;;1.02;0.20;;;;;;;10.18;100.00;99777.59;5083434;28;20064;-67
2023/12/26 06:06:03;;;;;;;1.20;0.20;;;;;;;10.19;100.00;99779.41;5084798;28;20059;-67
2023/12/26 06:08:28;;;;;;;1.15;0.20;;;;;;;10.18;100.00;99781.16;5084612;28;20081;-66
2023/12/26 06:10:54;;;;;;;1.17;0.27;;;;;;;10.19;100.00;99787.31;5086390;28;20037;-67
2023/12/26 06:13:19;;;;;;;1.15;0.25;;;;;;;10.20;100.00;99786.47;5087082;28;20501;-70
2023/12/26 06:15:46;;;;;;;1.43;0.20;;;;;;;10.21;100.00;99788.28;5084456;28;20043;-66
2023/12/26 06:18:11;;;;;;;0.73;0.20;;;;;;;10.23;100.00;99802.38;5093073;28;20510;-67
2023/12/26 06:20:37;;;;;;;1.13;0.20;;;;;;;10.24;100.00;99809.44;5086589;28;20055;-67
2023/12/26 06:23:03;;;;;;;1.60;0.30;;;;;;;10.25;100.00;99816.53;5079704;28;20051;-67
2023/12/26 06:25:28;;;;;;;0.97;0.20;;;;;;;10.25;100.00;99825.34;5069836;28;20041;-66
2023/12/26 06:27:54;;;;;;;1.43;0.27;;;;;;;10.24;100.00;99836.72;5073639;28;20434;-71
2023/12/26 06:30:19;;;;;;;1.52;0.30;;;;;;;10.25;100.00;99837.63;5074070;28;20033;-69
2023/12/26 06:32:44;;;;;;;1.20;0.20;;;;;;;10.25;100.00;99827.06;5072117;28;20496;-66
2023/12/26 06:35:10;;;;;;;0.67;0.20;;;;;;;10.24;100.00;99846.38;5075224;28;20024;-73
2023/12/26 06:37:35;;;;;;;1.30;0.20;;;;;;;10.23;100.00;99850.78;5062274;28;20052;-67
2023/12/26 06:40:01;;;;;;;1.27;0.23;;;;;;;10.21;100.00;99851.59;5064520;28;20098;-68
2023/12/26 06:42:26;;;;;;;2.50;0.30;;;;;;;10.18;100.00;99851.50;5063375;28;20064;-70
2023/12/26 06:44:51;;;;;;;1.30;0.20;;;;;;;10.19;100.00;99863.84;5065284;28;20028;-73
2023/12/26 06:47:17;;;;;;;1.50;0.27;;;;;;;10.18;100.00;99856.78;5070452;28;20058;-72
2023/12/26 06:51:57;;;;;;;0.65;0.20;;;;;;;10.13;100.00;99848.69;5098323;27;20375;-67
2023/12/26 06:54:23;;;;;;;1.58;0.30;;;;;;;10.10;100.00;99853.00;5098590;28;20036;-69
2023/12/26 06:56:48;;;;;;;1.23;0.20;;;;;;;10.07;100.00;99847.63;5104311;28;20031;-68
2023/12/26 06:59:14;;;;;;;1.88;0.30;;;;;;;10.06;100.00;99846.75;5104254;28;20038;-67
2023/12/26 07:01:45;;;;;;;0.77;0.20;;;;;;;10.02;100.00;99850.13;5105807;28;20040;-66
2023/12/26 07:04:11;;;;;;;1.30;0.20;;;;;;;9.99;100.00;99855.31;5106523;28;20092;-68
2023/12/26 07:06:36;;;;;;;0.83;0.20;;;;;;;9.98;100.00;99870.25;5105535;28;20399;-69
2023/12/26 07:09:02;;;;;;;0.63;0.10;;;;;;;9.96;100.00;99874.56;5104914;28;20055;-69
2023/12/26 07:11:28;;;;;;;1.43;0.23;;;;;;;9.96;100.00;99871.06;5105326;28;20622;-67
2023/12/26 07:13:53;;;;;;;1.40;0.22;;;;;;;9.92;100.00;99885.88;5107179;28;20043;-67
2023/12/26 07:16:19;;;;;;;1.50;0.30;;;;;;;9.91;100.00;99889.41;5098702;28;20036;-67
2023/12/26 07:18:45;;;;;;;0.90;0.20;;;;;;;9.89;100.00;99900.72;5098566;28;20115;-72
2023/12/26 07:21:10;;;;;;;1.60;0.30;;;;;;;9.85;100.00;99912.94;5093350;28;20694;-67
2023/12/26 07:23:36;;;;;;;1.92;0.40;;;;;;;9.83;100.00;99917.25;5104150;28;20036;-67
2023/12/26 07:26:01;;;;;;;5.10;0.40;;;;;;;9.84;100.00;99929.59;5102759;28;20422;-67
2023/12/26 07:28:26;;;;;;;1.87;0.30;;;;;;;9.82;100.00;99931.28;5106899;28;20073;-67
2023/12/26 07:30:52;;;;;;;1.57;0.30;;;;;;;9.84;100.00;99932.25;5106790;28;20036;-67
2023/12/26 07:33:17;;;;;;;1.77;0.30;;;;;;;9.81;100.00;99940.06;5099552;28;20040;-67
2023/12/26 07:35:42;;;;;;;1.80;0.20;;;;;;;9.80;100.00;99942.66;5106477;28;20283;-66
2023/12/26 07:38:08;;;;;;;1.87;0.30;;;;;;;9.80;100.00;99938.28;5105643;28;20290;-67
2023/12/26 07:40:33;;;;;;;1.47;0.30;;;;;;;9.78;100.00;99947.88;5106809;28;20115;-67
2023/12/26 07:42:59;;;;;;;1.00;0.20;;;;;;;9.78;100.00;99954.88;5107163;28;20043;-67
2023/12/26 07:45:25;;;;;;;1.20;0.20;;;;;;;9.80;100.00;99967.28;5105623;28;20115;-67
2023/12/26 07:47:53;;;;;;;1.53;0.30;;;;;;;9.84;100.00;99971.81;5079533;28;20293;-67
2023/12/26 07:50:18;;;;;;;3.13;0.30;;;;;;;9.87;100.00;99969.25;5078920;28;20035;-68
2023/12/26 07:52:44;;;;;;;2.33;0.30;;;;;;;9.88;100.00;99980.69;5078036;28;20028;-66
2023/12/26 07:55:10;;;;;;;1.60;0.20;;;;;;;9.88;100.00;99981.59;5086390;28;20123;-69
2023/12/26 07:57:36;;;;;;;4.13;0.50;;;;;;;9.89;100.00;99978.13;5086325;28;20044;-69
2023/12/26 08:00:01;;;;;;;1.60;0.20;;;;;;;9.87;100.00;99985.06;5086074;28;20052;-70
2023/12/26 08:02:37;;;;;;;2.00;0.30;;;;;;;9.89;100.00;99996.59;5076973;28;20131;-70
2023/12/26 08:05:03;;;;;;;1.53;0.30;;;;;;;9.85;100.00;99989.44;5071315;28;20111;-69
2023/12/26 08:07:29;;;;;;;1.87;0.30;;;;;;;9.83;100.00;100006.03;5072517;28;20400;-66
2023/12/26 08:09:54;;;;;;;2.88;0.40;;;;;;;9.82;100.00;100018.31;5072168;28;20576;-68
2023/12/26 08:12:20;;;;;;;2.43;0.30;;;;;;;9.80;100.00;100020.03;5072352;28;20044;-69
2023/12/26 08:14:46;;;;;;;1.77;0.30;;;;;;;9.77;100.00;100022.56;5071978;28;20036;-70
2023/12/26 08:17:12;;;;;;;1.00;0.20;;;;;;;9.76;100.00;100028.69;5072514;28;20063;-69
2023/12/26 08:19:37;;;;;;;3.25;0.30;;;;;;;9.77;100.00;100033.09;5072290;28;20082;-68
2023/12/26 08:22:03;;;;;;;1.70;0.43;;;;;;;9.79;100.00;100036.69;5072830;28;20033;-67
2023/12/26 08:24:28;;;;;;;1.83;0.30;;;;;;;9.81;100.00;100047.31;5072260;28;20243;-67
2023/12/26 08:26:54;;;;;;;1.83;0.30;;;;;;;9.80;100.00;100054.31;5072440;28;20457;-68
2023/12/26 08:29:21;;;;;;;3.57;0.50;;;;;;;9.81;100.00;100052.56;5072506;28;20044;-67
2023/12/26 08:31:46;;;;;;;3.30;0.45;;;;;;;9.85;100.00;100065.91;5072638;28;20054;-68
2023/12/26 08:36:25;;;;;;;2.50;0.38;;;;;;;9.88;100.00;100068.63;5004390;28;20757;-68
2023/12/26 08:38:50;;;;;;;3.47;0.40;;;;;;;9.88;100.00;100071.28;5003544;28;20038;-68
2023/12/26 08:41:15;;;;;;;1.90;0.40;;;;;;;9.91;100.00;100089.84;4985079;28;20050;-69
2023/12/26 08:43:41;;;;;;;2.77;0.50;;;;;;;9.98;100.00;100094.47;4985194;28;20481;-67
2023/12/26 08:46:06;;;;;;;5.90;0.53;;;;;;;10.04;100.00;100095.50;4984961;28;20369;-67
2023/12/26 08:48:32;;;;;;;3.13;0.40;;;;;;;10.08;100.00;100086.84;4983514;28;20144;-72
2023/12/26 08:50:58;;;;;;;3.70;0.50;;;;;;;10.10;100.00;100079.91;4992703;28;20038;-67
2023/12/26 08:53:23;;;;;;;4.40;0.40;;;;;;;10.11;100.00;100086.97;4984717;28;20612;-67
2023/12/26 08:55:49;;;;;;;4.30;0.50;;;;;;;10.09;100.00;100110.66;4984715;28;20126;-67
2023/12/26 08:58:14;;;;;;;5.40;0.53;;;;;;;10.09;100.00;100093.91;4984603;28;20182;-69
2023/12/26 09:00:40;;;;;;;2.73;0.53;;;;;;;10.10;100.00;100103.63;4987471;28;20034;-67
2023/12/26 09:03:07;;;;;;;3.57;0.70;;;;;;;10.13;100.00;100119.56;4989855;28;20321;-67
2023/12/26 09:05:32;;;;;;;3.22;0.50;;;;;;;10.15;100.00;100109.97;4984359;28;20043;-72
2023/12/26 09:07:58;;;;;;;4.40;0.80;;;;;;;10.16;99.96;100122.34;4983623;28;20034;-67
2023/12/26 09:10:23;;;;;;;4.33;0.67;;;;;;;10.09;99.80;100126.47;4984184;28;20047;-67
2023/12/26 09:12:49;;;;;;;6.00;0.77;;;;;;;10.03;99.92;100139.47;4984446;28;20034;-68
2023/12/26 09:15:14;;;;;;;4.00;0.65;;;;;;;10.02;99.91;100120.94;4984195;28;20030;-68
2023/12/26 09:17:40;;;;;;;8.70;0.63;;;;;;;9.97;99.53;100132.25;4984508;28;20065;-67
2023/12/26 09:20:05;;;;;;;4.13;0.60;;;;;;;9.94;99.40;100155.88;4984149;28;20110;-67
2023/12/26 09:22:31;;;;;;;2.87;0.47;;;;;;;9.94;99.24;100149.72;4984397;28;20046;-67
2023/12/26 09:24:56;;;;;;;3.80;0.67;;;;;;;9.95;98.61;100160.31;4982733;28;20088;-67
2023/12/26 09:27:21;;;;;;;2.63;0.40;;;;;;;10.00;97.70;100168.41;4984786;28;20290;-67
2023/12/26 09:29:47;;;;;;;3.87;0.70;;;;;;;10.04;97.54;100172.03;4995627;28;20034;-69
2023/12/26 09:32:12;;;;;;;6.53;1.63;;;;;;;10.10;96.83;100151.13;4987390;28;20080;-77
2023/12/26 09:34:38;;;;;;;5.60;0.60;;;;;;;10.18;95.90;100166.41;4983730;28;20039;-66
2023/12/26 09:37:03;;;;;;;5.18;0.85;;;;;;;10.32;94.83;100174.75;4984343;28;20384;-66
2023/12/26 09:39:28;;;;;;;6.93;0.87;;;;;;;10.37;93.50;100170.53;4983879;28;20034;-69
2023/12/26 09:41:55;;;;;;;2.77;0.43;;;;;;;10.41;92.92;100182.97;4984404;28;20429;-66
2023/12/26 09:44:21;;;;;;;2.40;0.57;;;;;;;10.48;91.99;100173.53;4983972;28;20058;-67
2023/12/26 09:46:46;;;;;;;5.57;0.70;;;;;;;10.49;91.18;100176.22;4976462;28;20502;-66
2023/12/26 09:49:12;;;;;;;6.60;0.97;;;;;;;10.48;90.80;100190.25;4978884;28;20048;-66
2023/12/26 09:51:43;;;;;;;3.53;0.63;;;;;;;10.42;90.89;100184.78;4978906;28;20290;-66
2023/12/26 09:54:10;;;;;;;4.38;0.63;;;;;;;10.39;90.55;100196.16;4970899;28;20023;-69
2023/12/26 09:56:38;;;;;;;4.25;0.93;;;;;;;10.40;89.69;100197.03;4973274;28;20098;-67
2023/12/26 09:59:05;;;;;;;5.25;0.60;;;;;;;10.42;88.97;100182.13;4976232;28;20121;-67
2023/12/26 10:01:30;;;;;;;3.30;0.60;;;;;;;10.46;87.97;100212.19;4971348;28;20360;-66
2023/12/26 10:03:56;;;;;;;2.53;0.50;;;;;;;10.47;87.09;100219.25;4970799;28;20490;-67
2023/12/26 10:06:22;;;;;;;3.63;0.80;;;;;;;10.47;86.15;100217.50;4969850;28;20271;-66
2023/12/26 10:08:47;;;;;;;5.13;0.60;;;;;;;10.52;85.39;100218.53;4970804;28;20502;-69
2023/12/26 10:13:42;;;;;;;5.07;0.52;;;;;;;10.50;84.92;100224.63;5107984;27;20359;-68
2023/12/26 10:16:07;;;;;;;1.92;0.40;;;;;;;10.59;83.86;100231.13;5107716;28;20027;-64
2023/12/26 10:18:33;;;;;;;3.70;0.80;;;;;;;10.66;82.26;100242.75;5107962;28;20084;-69
2023/12/26 10:20:58;;;;;;;3.07;0.53;;;;;;;10.69;81.40;100251.69;5088219;28;20103;-65
2023/12/26 10:23:24;;;;;;;3.28;0.60;;;;;;;10.70;80.44;100227.09;5087652;28;20107;-66
2023/12/26 10:25:49;;;;;;;11.07;0.93;;;;;;;10.67;79.22;100244.56;5087181;28;20043;-67
2023/12/26 10:28:16;;;;;;;2.50;0.40;;;;;;;10.60;79.28;100246.13;5087879;28;20036;-68
2023/12/26 10:30:41;;;;;;;7.38;0.80;;;;;;;10.60;78.81;100254.03;5087315;28;20399;-71
2023/12/26 10:33:07;;;;;;;4.28;0.73;;;;;;;10.58;78.76;100254.81;5087565;28;20131;-65
2023/12/26 10:35:33;;;;;;;3.60;0.43;;;;;;;10.53;78.87;100257.31;5087176;28;20042;-69
2023/12/26 10:37:59;;;;;;;5.22;0.93;;;;;;;10.48;77.63;100264.19;5085949;28;20477;-67
2023/12/26 10:40:25;;;;;;;3.47;0.47;;;;;;;10.43;77.06;100272.78;5087042;28;20086;-67
2023/12/26 10:42:51;;;;;;;5.85;0.70;;;;;;;10.38;77.04;100284.09;5086572;28;20048;-69
2023/12/26 10:45:19;;;;;;;6.93;1.13;;;;;;;10.42;77.14;100276.28;5087588;28;20059;-68
2023/12/26 10:47:48;;;;;;;2.97;0.80;;;;;;;10.48;76.59;100290.59;5088284;28;20028;-70
2023/12/26 10:50:16;;;;;;;10.52;1.30;;;;;;;10.63;75.72;100280.53;5096099;28;20039;-69
2023/12/26 10:52:52;;;;;;;3.60;0.50;;;;;;;10.76;74.48;100282.72;5087464;28;20036;-69
2023/12/26 10:55:19;;;;;;;6.55;0.70;;;;;;;10.80;73.06;100294.31;5087524;28;20071;-68
2023/12/26 10:57:45;;;;;;;5.00;0.70;;;;;;;10.89;73.09;100299.88;5087739;28;20051;-67
2023/12/26 11:00:11;;;;;;;7.13;0.90;;;;;;;10.94;72.46;100302.69;5087357;28;20062;-69
2023/12/26 11:02:36;;;;;;;7.30;0.85;;;;;;;10.83;73.11;100300.59;5087626;28;20142;-67
2023/12/26 11:05:02;;;;;;;6.40;0.70;;;;;;;10.78;73.05;100291.59;5086159;28;20101;-72
2023/12/26 11:07:27;;;;;;;11.93;0.83;;;;;;;10.73;72.78;100294.94;5086948;28;20439;-77
2023/12/26 11:09:52;;;;;;;5.03;0.73;;;;;;;10.64;72.75;100311.38;5086670;28;20024;-68
2023/12/26 11:12:20;;;;;;;2.50;0.60;;;;;;;10.59;72.45;100318.25;5087056;28;20403;-71
2023/12/26 11:14:45;;;;;;;5.97;0.67;;;;;;;10.53;72.63;100304.84;5087162;28;20655;-68
2023/12/26 11:17:11;;;;;;;4.22;0.82;;;;;;;10.51;72.64;100316.22;5087142;28;20036;-69
2023/12/26 11:19:37;;;;;;;3.10;0.47;;;;;;;10.49;73.02;100324.06;5085991;28;20492;-71
2023/12/26 11:22:02;;;;;;;3.90;0.75;;;;;;;10.61;73.36;100313.91;5095791;28;20066;-70
2023/12/26 11:24:28;;;;;;;3.13;0.53;;;;;;;10.78;72.93;100319.75;5076215;28;20074;-72
2023/12/26 11:26:54;;;;;;;6.90;0.98;;;;;;;10.84;72.04;100322.63;5073337;28;20092;-67
2023/12/26 11:29:19;;;;;;;9.30;0.80;;;;;;;11.05;71.96;100319.78;5073398;28;20040;-67
2023/12/26 11:31:44;;;;;;;10.73;1.13;;;;;;;11.38;75.83;100309.34;5073715;28;20036;-69
2023/12/26 11:34:13;;;;;;;3.43;0.60;;;;;;;11.26;73.40;100344.22;5073281;28;20029;-69
2023/12/26 11:36:43;;;;;;;6.07;0.60;;;;;;;11.19;72.79;100332.59;5076247;28;20658;-74
2023/12/26 11:39:09;;;;;;;7.60;1.23;;;;;;;11.18;72.10;100336.06;5087020;28;20032;-70
2023/12/26 11:41:34;;;;;;;6.53;1.00;;;;;;;11.18;71.67;100340.47;5071850;28;20036;-68
2023/12/26 11:43:59;;;;;;;8.27;1.33;;;;;;;11.12;71.27;100354.38;5073363;28;20071;-68
2023/12/26 11:46:25;;;;;;;4.27;0.53;;;;;;;11.06;71.00;100346.22;5081449;28;20361;-67